• Join FlightAware (Why Join?)
  • Login
  • US Flag 
07:52AM EDT


 

Airport Tracker/Info


-or-


 

Live Flight TrackerFlight Track Log ✈ JUS196 ✈ 23-Apr-2013 ✈ KSHV - MMTO / TLC

Flight Track Log - Related Links

Times and Time Zones

All times are in EDT time to prevent confusion due to time zone crossing. See the JUS196 flight status page for this flight to view local times or setup timezone preferences in your user account.

Time Position Orientation Groundspeed Altitude Reporting Facility
EDT Latitude Longitude Course Direction KTS MPH feet Rate Location/Type
02:28AM 32.4508 -93.8389 304° West 137 158 1,000  Level Fort Worth Center
02:29AM 32.4728 -93.8772 304° West 185 213 2,500 1,980 Climbing Fort Worth Center
02:30AM 32.4381 -93.9058 215° Southwest 191 220 4,700 2,160 Climbing Fort Worth Center
02:31AM 32.3908 -93.9397 211° Southwest 204 235 6,700 2,460 Climbing Fort Worth Center
02:32AM 32.3233 -93.9889 212° Southwest 250 288 9,700 2,520 Climbing Fort Worth Center
02:33AM 32.2597 -94.0281 208° Southwest 278 320 11,800 2,640 Climbing Fort Worth Center
02:34AM 32.1817 -94.0753 207° Southwest 300 345 15,000 2,520 Climbing Fort Worth Center
02:35AM 32.1139 -94.1144 206° Southwest 300 345 16,900 1,920 Climbing Fort Worth Center
02:36AM 32.0381 -94.1661 210° Southwest 305 351 18,900 1,920 Climbing Fort Worth Center
02:38AM 31.8731 -94.2589 206° Southwest 334 384 22,700 1,800 Climbing Houston Center
02:39AM 31.7881 -94.3142 209° Southwest 345 397 24,400 1,560 Climbing Houston Center
02:40AM 31.6994 -94.3728 209° Southwest 361 415 25,900 1,500 Climbing Houston Center
02:41AM 31.6092 -94.4325 209° Southwest 369 425 27,400 1,500 Climbing Houston Center
02:42AM 31.5175 -94.4911 209° Southwest 372 428 29,000 1,500 Climbing Houston Center
02:43AM 31.4242 -94.5500 208° Southwest 377 434 30,500 1,320 Climbing Houston Center
02:44AM 31.3317 -94.6075 208° Southwest 375 432 31,700 1,020 Climbing Houston Center
02:45AM 31.2392 -94.6656 208° Southwest 378 435 32,600 900 Climbing Houston Center
02:46AM 31.1442 -94.7233 208° Southwest 384 442 33,500 720 Climbing Houston Center
02:47AM 31.0386 -94.7850 207° Southwest 385 443 34,100 300 Climbing Houston Center
02:48AM 30.9411 -94.8372 205° Southwest 385 443 34,100  Level Houston Center
02:49AM 30.8439 -94.8872 204° Southwest 383 441 34,100  Level Houston Center
02:50AM 30.7472 -94.9375 204° Southwest 380 437 34,100  Level Houston Center
02:51AM 30.6497 -94.9864 203° Southwest 381 438 34,100  Level Houston Center
02:52AM 30.5533 -95.0378 205° Southwest 381 438 34,100  Level Houston Center
02:53AM 30.4558 -95.0883 204° Southwest 384 442 34,100  Level Houston Center
02:54AM 30.3628 -95.1372 204° Southwest 380 437 34,100  Level Houston Center
02:55AM 30.2661 -95.1869 204° Southwest 383 441 34,100  Level Houston Center
02:56AM 30.1700 -95.2381 205° Southwest 382 440 34,100  Level Houston Center
02:57AM 30.0739 -95.2872 204° Southwest 380 437 34,100  Level Houston Center
02:58AM 29.9767 -95.3364 204° Southwest 382 440 34,100  Level Houston Center
02:59AM 29.8811 -95.3875 205° Southwest 382 440 34,100  Level Houston Center
03:00AM 29.7950 -95.4522 213° Southwest 375 432 34,100  Level Houston Center
03:01AM 29.7150 -95.5239 218° Southwest 370 426 34,100  Level Houston Center
03:02AM 29.6361 -95.5961 219° Southwest 367 422 34,100  Level Houston Center
03:03AM 29.5564 -95.6672 218° Southwest 366 421 34,100  Level Houston Center
03:04AM 29.4728 -95.7361 216° Southwest 371 427 34,100  Level Houston Center
03:05AM 29.3917 -95.8042 216° Southwest 365 420 34,100  Level Houston Center
03:06AM 29.3086 -95.8717 215° Southwest 366 421 34,100  Level Houston Center
03:07AM 29.2253 -95.9386 215° Southwest 366 421 34,100  Level Houston Center
03:08AM 29.1261 -96.0039 210° Southwest 370 426 34,100  Level Houston Center
03:09AM 29.0317 -96.0544 205° Southwest 374 430 34,100  Level Houston Center
03:10AM 28.9350 -96.1036 204° Southwest 377 434 34,100  Level Houston Center
03:11AM 28.8408 -96.1547 205° Southwest 374 430 34,100  Level Houston Center
03:12AM 28.7483 -96.2117 208° Southwest 375 432 34,100  Level Houston Center
03:13AM 28.6558 -96.2683 208° Southwest 376 433 34,100  Level Houston Center
03:14AM 28.5614 -96.3214 206° Southwest 378 435 34,100  Level Houston Center
03:15AM 28.4661 -96.3753 206° Southwest 380 437 34,100  Level Houston Center
03:16AM 28.3708 -96.4283 206° Southwest 381 438 34,100  Level Houston Center
03:17AM 28.2742 -96.4831 207° Southwest 384 442 34,100  Level Houston Center
03:18AM 28.1775 -96.5356 206° Southwest 387 445 34,100  Level Houston Center
03:19AM 28.0808 -96.5897 206° Southwest 388 447 34,100  Level Houston Center
03:20AM 27.9856 -96.6439 207° Southwest 384 442 34,100  Level Houston Center
03:21AM 27.8900 -96.6969 206° Southwest 382 440 34,100  Level Houston Center
03:22AM 27.7947 -96.7503 206° Southwest 382 440 34,100  Level Houston Center
03:23AM 27.6983 -96.8036 206° Southwest 385 443 34,100  Level Houston Center
03:24AM 27.6028 -96.8586 207° Southwest 385 443 34,100  Level Houston Center
03:25AM 27.5075 -96.9114 206° Southwest 382 440 34,100  Level Houston Center
03:26AM 27.4239 -96.9567 206° Southwest 383 441 34,100  Level Houston Center
03:27AM 27.3300 -97.0111 207° Southwest 381 438 34,100  Level Houston Center
03:28AM 27.2342 -97.0636 206° Southwest 382 440 34,100  Level Houston Center
03:29AM 27.1386 -97.1169 206° Southwest 381 438 34,100  Level Houston Center
03:30AM 27.0436 -97.1689 206° Southwest 380 437 34,100  Level Houston Center
03:31AM 26.9486 -97.2211 206° Southwest 379 436 34,100  Level Houston Center
03:32AM 26.8439 -97.2806 207° Southwest 379 436 34,100  Level Houston Center
03:33AM 26.7494 -97.3331 206° Southwest 379 436 34,100  Level Houston Center
03:34AM 26.6544 -97.3833 205° Southwest 378 435 34,100  Level Houston Center
03:35AM 26.5531 -97.4400 207° Southwest 378 435 34,100  Level Houston Center
03:36AM 26.4656 -97.4872 206° Southwest 378 435 34,100  Level Houston Center
03:37AM 26.3703 -97.5386 206° Southwest 379 436 34,100  Level Houston Center
03:38AM 26.2747 -97.5900 206° Southwest 380 437 34,100  Level Houston Center
03:39AM 26.1892 -97.6372 206° Southwest 382 440 34,100  Level Houston Center
03:40AM 26.0914 -97.6903 206° Southwest 388 447 34,100  Level Houston Center
03:41AM 25.9811 -97.7500 206° Southwest 388 447 34,100  Level Houston Center
03:42AM 25.8844 -97.8019 206° Southwest 385 443 34,100  Level Houston Center
03:44AM 25.7215 -97.8883 206° Southwest  Level FlightAware Approximate
03:51AM 25.0814 -98.2249 205° Southwest  Level FlightAware Approximate
03:52AM 24.9900 -98.2730 206° Southwest  Level FlightAware Approximate
03:53AM 24.8988 -98.3214 206° Southwest  Level FlightAware Approximate
03:54AM 24.8075 -98.3697 206° Southwest  Level FlightAware Approximate
03:55AM 24.7163 -98.4180 206° Southwest  Level FlightAware Approximate
03:56AM 24.6250 -98.4661 206° Southwest  Level FlightAware Approximate
03:57AM 24.5337 -98.5143 206° Southwest  Level FlightAware Approximate
03:58AM 24.4424 -98.5623 206° Southwest  Level FlightAware Approximate
03:59AM 24.3510 -98.6103 206° Southwest  Level FlightAware Approximate
04:00AM 24.2597 -98.6582 206° Southwest  Level FlightAware Approximate
04:01AM 24.1683 -98.7060 206° Southwest  Level FlightAware Approximate
04:02AM 24.0770 -98.7538 206° Southwest  Level FlightAware Approximate
04:03AM 23.9856 -98.8015 205° Southwest  Level FlightAware Approximate
04:04AM 23.8942 -98.8491 205° Southwest  Level FlightAware Approximate
04:05AM 23.8028 -98.8966 205° Southwest  Level FlightAware Approximate
04:06AM 23.7113 -98.9441 205° Southwest  Level FlightAware Approximate
04:07AM 23.6170 -98.9840 201° Southwest  Level FlightAware Approximate
04:08AM 23.5222 -99.0229 201° Southwest  Level FlightAware Approximate
04:09AM 23.4274 -99.0616 201° Southwest  Level FlightAware Approximate
04:10AM 23.3326 -99.1003 205° Southwest  Level FlightAware Approximate
04:11AM 23.2388 -99.1417 201° Southwest  Level FlightAware Approximate
04:12AM 23.1441 -99.1804 201° Southwest  Level FlightAware Approximate
04:13AM 23.0493 -99.2191 201° Southwest  Level FlightAware Approximate
04:14AM 22.9545 -99.2577 201° Southwest  Level FlightAware Approximate
04:15AM 22.8597 -99.2963 201° Southwest  Level FlightAware Approximate
04:16AM 22.7649 -99.3348 201° Southwest  Level FlightAware Approximate
04:17AM 22.6701 -99.3733 201° Southwest  Level FlightAware Approximate
04:18AM 22.5753 -99.4117 201° Southwest  Level FlightAware Approximate
04:19AM 22.4805 -99.4501 200° South  Level FlightAware Approximate
04:20AM 22.3856 -99.4884 200° South  Level FlightAware Approximate
04:21AM 22.2908 -99.5267 200° South  Level FlightAware Approximate
04:22AM 22.1959 -99.5649 200° South  Level FlightAware Approximate
04:23AM 22.1008 -99.6023 200° South  Level FlightAware Approximate
04:24AM 22.0055 -99.6391 200° South  Level FlightAware Approximate
04:25AM 21.9101 -99.6758 200° South  Level FlightAware Approximate
04:26AM 21.8148 -99.7125 200° South  Level FlightAware Approximate
04:27AM 21.7194 -99.7491 200° South  Level FlightAware Approximate
04:28AM 21.6241 -99.7857 200° South  Level FlightAware Approximate
04:29AM 21.5287 -99.8222 200° South  Level FlightAware Approximate
04:30AM 21.4333 -99.8586 200° South  Level FlightAware Approximate
04:31AM 21.3379 -99.8951 200° South  Level FlightAware Approximate
04:32AM 21.2425 -99.9314 200° South  Level FlightAware Approximate
04:33AM 21.1472 -99.9678 201° Southwest  Level FlightAware Approximate
04:34AM 21.0523 -100.0058 201° Southwest  Level FlightAware Approximate
04:35AM 20.9575 -100.0437 200° South  Level FlightAware Approximate
04:36AM 20.8626 -100.0816 200° South  Level FlightAware Approximate
04:37AM 20.7694 -100.1236 205° Southwest  Level FlightAware Approximate
04:38AM 20.6747 -100.1616 199° South  Level FlightAware Approximate
04:39AM 20.5771 -100.1877 186° South  Level FlightAware Approximate
04:40AM 20.4764 -100.1989 186° South  Level FlightAware Approximate
04:41AM 20.3754 -100.2036 183° South  Level FlightAware Approximate
04:42AM 20.2743 -100.2100 183° South  Level FlightAware Approximate
04:43AM 20.1732 -100.2163 183° South  Level FlightAware Approximate
04:44AM 20.0727 -100.2284 187° South  Level FlightAware Approximate
04:45AM 19.9721 -100.2410 187° South  Level FlightAware Approximate
04:46AM 19.8716 -100.2536 187° South  Level FlightAware Approximate
04:47AM 19.7710 -100.2661 187° South  Level FlightAware Approximate
04:48AM 19.6698 -100.2667 180° South  Level FlightAware Approximate
04:49AM 19.5789 -100.2700 109° East  Level FlightAware Approximate
04:50AM 19.5455 -100.1686 108° East  Level FlightAware Approximate
04:51AM 19.5141 -100.0665 108° East  Level FlightAware Approximate
04:52AM 19.4827 -99.9644 108° East  Level FlightAware Approximate
04:53AM 19.4520 -99.8621 108° East  Level FlightAware Approximate
04:54AM 19.4201 -99.7602 109° East  Level FlightAware Approximate
04:55AM 19.3796 -99.6655 113° Southeast  Level FlightAware Approximate
04:56AM 19.3500 -99.5667 North  Level FlightAware Approximate
04:57AM 19.3371 -99.5660 North  Level Estimated
04:58AM 19.3371 -99.5660 North  Level Estimated
04:59AM 19.3371 -99.5660 North  Level Estimated
05:00AM 19.3371 -99.5660 North  Level Estimated
05:01AM 19.3371 -99.5660 North  Level Estimated
05:02AM 19.3371 -99.5660 North  Level Estimated
05:03AM 19.3371 -99.5660 North  Level Estimated
05:04AM 19.3371 -99.5660 North  Level Estimated
05:05AM 19.3371 -99.5660 North  Level Estimated
05:06AM 19.3371 -99.5660 North  Level Estimated
05:07AM 19.3371 -99.5660 North  Level Estimated
05:08AM 19.3371 -99.5660 North  Level Estimated
05:09AM 19.3371 -99.5660 North  Level Estimated
05:10AM 19.3371 -99.5660 North  Level Estimated
05:11AM 19.3371 -99.5660 North  Level Estimated